sensor_id;sensor_type;location;lat;lon;timestamp;P1;durP1;ratioP1;P2;durP2;ratioP2
5999;SDS011;3028;49.468;7.694;2023-11-19T00:00:56;1.73;;;1.63;;
5999;SDS011;3028;49.468;7.694;2023-11-19T00:02:58;2.58;;;2.38;;
5999;SDS011;3028;49.468;7.694;2023-11-19T00:05:00;5.80;;;2.70;;
5999;SDS011;3028;49.468;7.694;2023-11-19T00:07:02;2.47;;;2.03;;
5999;SDS011;3028;49.468;7.694;2023-11-19T00:09:05;7.65;;;3.85;;
5999;SDS011;3028;49.468;7.694;2023-11-19T00:11:09;5.40;;;4.90;;
5999;SDS011;3028;49.468;7.694;2023-11-19T00:13:11;2.90;;;2.50;;
5999;SDS011;3028;49.468;7.694;2023-11-19T00:15:13;1.70;;;1.58;;
5999;SDS011;3028;49.468;7.694;2023-11-19T00:17:16;3.38;;;2.67;;
5999;SDS011;3028;49.468;7.694;2023-11-19T00:19:17;2.35;;;2.15;;
5999;SDS011;3028;49.468;7.694;2023-11-19T00:21:19;2.45;;;2.25;;
5999;SDS011;3028;49.468;7.694;2023-11-19T00:23:21;2.33;;;1.25;;
5999;SDS011;3028;49.468;7.694;2023-11-19T00:25:22;1.10;;;1.08;;
5999;SDS011;3028;49.468;7.694;2023-11-19T00:27:24;1.80;;;1.10;;
5999;SDS011;3028;49.468;7.694;2023-11-19T00:29:30;0.93;;;0.90;;
5999;SDS011;3028;49.468;7.694;2023-11-19T00:31:32;0.93;;;0.93;;
5999;SDS011;3028;49.468;7.694;2023-11-19T00:33:34;0.93;;;0.93;;
5999;SDS011;3028;49.468;7.694;2023-11-19T00:35:35;0.50;;;0.50;;
5999;SDS011;3028;49.468;7.694;2023-11-19T00:37:37;0.85;;;0.85;;
5999;SDS011;3028;49.468;7.694;2023-11-19T00:39:39;1.33;;;1.33;;
5999;SDS011;3028;49.468;7.694;2023-11-19T00:41:40;0.70;;;0.70;;
5999;SDS011;3028;49.468;7.694;2023-11-19T00:43:42;0.65;;;0.65;;
5999;SDS011;3028;49.468;7.694;2023-11-19T00:45:44;0.75;;;0.75;;
5999;SDS011;3028;49.468;7.694;2023-11-19T00:47:46;0.80;;;0.80;;
5999;SDS011;3028;49.468;7.694;2023-11-19T00:49:48;0.60;;;0.60;;
5999;SDS011;3028;49.468;7.694;2023-11-19T00:51:50;0.70;;;0.70;;
5999;SDS011;3028;49.468;7.694;2023-11-19T00:53:52;0.60;;;0.60;;
5999;SDS011;3028;49.468;7.694;2023-11-19T00:55:56;0.60;;;0.60;;
5999;SDS011;3028;49.468;7.694;2023-11-19T00:57:58;1.17;;;0.80;;
5999;SDS011;3028;49.468;7.694;2023-11-19T01:00:00;2.25;;;0.93;;
5999;SDS011;3028;49.468;7.694;2023-11-19T01:02:02;0.60;;;0.60;;
5999;SDS011;3028;49.468;7.694;2023-11-19T01:04:06;0.65;;;0.65;;
5999;SDS011;3028;49.468;7.694;2023-11-19T01:06:08;0.63;;;0.63;;
5999;SDS011;3028;49.468;7.694;2023-11-19T01:08:10;0.70;;;0.70;;
5999;SDS011;3028;49.468;7.694;2023-11-19T01:10:12;0.50;;;0.50;;
5999;SDS011;3028;49.468;7.694;2023-11-19T01:12:13;0.60;;;0.60;;
5999;SDS011;3028;49.468;7.694;2023-11-19T01:14:15;0.60;;;0.60;;
5999;SDS011;3028;49.468;7.694;2023-11-19T01:16:19;0.73;;;0.73;;
5999;SDS011;3028;49.468;7.694;2023-11-19T01:18:21;0.80;;;0.80;;
5999;SDS011;3028;49.468;7.694;2023-11-19T01:20:23;0.60;;;0.60;;
5999;SDS011;3028;49.468;7.694;2023-11-19T01:22:25;1.45;;;0.77;;
5999;SDS011;3028;49.468;7.694;2023-11-19T01:24:29;0.60;;;0.60;;
5999;SDS011;3028;49.468;7.694;2023-11-19T01:26:32;0.50;;;0.50;;
5999;SDS011;3028;49.468;7.694;2023-11-19T01:28:34;0.82;;;0.82;;
5999;SDS011;3028;49.468;7.694;2023-11-19T01:30:36;0.68;;;0.68;;
5999;SDS011;3028;49.468;7.694;2023-11-19T01:32:37;0.70;;;0.70;;
5999;SDS011;3028;49.468;7.694;2023-11-19T01:34:40;0.68;;;0.68;;
5999;SDS011;3028;49.468;7.694;2023-11-19T01:36:42;0.75;;;0.75;;
5999;SDS011;3028;49.468;7.694;2023-11-19T01:38:44;1.27;;;0.73;;
5999;SDS011;3028;49.468;7.694;2023-11-19T01:40:46;0.50;;;0.50;;
5999;SDS011;3028;49.468;7.694;2023-11-19T01:42:47;0.60;;;0.60;;
5999;SDS011;3028;49.468;7.694;2023-11-19T01:45:00;0.50;;;0.50;;
5999;SDS011;3028;49.468;7.694;2023-11-19T01:47:08;0.57;;;0.57;;
5999;SDS011;3028;49.468;7.694;2023-11-19T01:49:12;0.50;;;0.50;;
5999;SDS011;3028;49.468;7.694;2023-11-19T01:51:16;0.50;;;0.50;;
5999;SDS011;3028;49.468;7.694;2023-11-19T01:53:18;0.50;;;0.50;;
5999;SDS011;3028;49.468;7.694;2023-11-19T01:55:20;0.70;;;0.70;;
5999;SDS011;3028;49.468;7.694;2023-11-19T01:57:23;0.45;;;0.45;;
5999;SDS011;3028;49.468;7.694;2023-11-19T01:59:25;0.75;;;0.75;;
5999;SDS011;3028;49.468;7.694;2023-11-19T02:01:28;0.70;;;0.70;;
5999;SDS011;3028;49.468;7.694;2023-11-19T02:03:31;0.55;;;0.55;;
5999;SDS011;3028;49.468;7.694;2023-11-19T02:05:34;0.63;;;0.63;;
5999;SDS011;3028;49.468;7.694;2023-11-19T02:07:36;0.60;;;0.60;;
5999;SDS011;3028;49.468;7.694;2023-11-19T02:09:38;0.80;;;0.80;;
5999;SDS011;3028;49.468;7.694;2023-11-19T02:11:40;0.68;;;0.68;;
5999;SDS011;3028;49.468;7.694;2023-11-19T02:13:42;0.55;;;0.55;;
5999;SDS011;3028;49.468;7.694;2023-11-19T02:15:45;0.60;;;0.60;;
5999;SDS011;3028;49.468;7.694;2023-11-19T02:17:47;1.00;;;1.00;;
5999;SDS011;3028;49.468;7.694;2023-11-19T02:19:49;0.60;;;0.60;;
5999;SDS011;3028;49.468;7.694;2023-11-19T02:21:50;0.68;;;0.68;;
5999;SDS011;3028;49.468;7.694;2023-11-19T02:23:52;0.50;;;0.50;;
5999;SDS011;3028;49.468;7.694;2023-11-19T02:28:15;0.40;;;0.40;;
5999;SDS011;3028;49.468;7.694;2023-11-19T02:30:21;5.45;;;1.00;;
5999;SDS011;3028;49.468;7.694;2023-11-19T02:32:27;0.68;;;0.68;;
5999;SDS011;3028;49.468;7.694;2023-11-19T02:34:32;0.50;;;0.50;;
5999;SDS011;3028;49.468;7.694;2023-11-19T02:36:34;0.52;;;0.52;;
5999;SDS011;3028;49.468;7.694;2023-11-19T02:38:36;0.50;;;0.50;;
5999;SDS011;3028;49.468;7.694;2023-11-19T02:40:38;0.60;;;0.60;;
5999;SDS011;3028;49.468;7.694;2023-11-19T02:42:40;0.55;;;0.55;;
5999;SDS011;3028;49.468;7.694;2023-11-19T02:44:45;0.90;;;0.90;;
5999;SDS011;3028;49.468;7.694;2023-11-19T02:46:50;0.70;;;0.70;;
5999;SDS011;3028;49.468;7.694;2023-11-19T02:48:52;0.50;;;0.50;;
5999;SDS011;3028;49.468;7.694;2023-11-19T02:50:54;0.85;;;0.85;;
5999;SDS011;3028;49.468;7.694;2023-11-19T02:52:59;0.60;;;0.60;;
5999;SDS011;3028;49.468;7.694;2023-11-19T02:55:02;0.60;;;0.60;;
5999;SDS011;3028;49.468;7.694;2023-11-19T02:57:04;0.50;;;0.50;;
5999;SDS011;3028;49.468;7.694;2023-11-19T02:59:06;0.55;;;0.55;;
5999;SDS011;3028;49.468;7.694;2023-11-19T03:01:23;5.68;;;0.77;;
5999;SDS011;3028;49.468;7.694;2023-11-19T03:03:32;0.60;;;0.60;;
5999;SDS011;3028;49.468;7.694;2023-11-19T03:05:40;0.60;;;0.60;;
5999;SDS011;3028;49.468;7.694;2023-11-19T03:07:42;0.50;;;0.50;;
5999;SDS011;3028;49.468;7.694;2023-11-19T03:09:47;0.60;;;0.60;;
5999;SDS011;3028;49.468;7.694;2023-11-19T03:11:54;0.50;;;0.50;;
5999;SDS011;3028;49.468;7.694;2023-11-19T03:13:55;0.50;;;0.50;;
5999;SDS011;3028;49.468;7.694;2023-11-19T03:15:57;0.50;;;0.50;;
5999;SDS011;3028;49.468;7.694;2023-11-19T03:17:59;1.70;;;1.10;;
5999;SDS011;3028;49.468;7.694;2023-11-19T03:20:01;0.60;;;0.60;;
5999;SDS011;3028;49.468;7.694;2023-11-19T03:22:03;1.17;;;0.82;;
5999;SDS011;3028;49.468;7.694;2023-11-19T03:24:05;0.50;;;0.50;;
5999;SDS011;3028;49.468;7.694;2023-11-19T03:26:07;0.70;;;0.70;;
5999;SDS011;3028;49.468;7.694;2023-11-19T03:28:10;0.50;;;0.50;;
5999;SDS011;3028;49.468;7.694;2023-11-19T03:30:12;0.60;;;0.60;;
5999;SDS011;3028;49.468;7.694;2023-11-19T03:32:14;0.70;;;0.70;;
5999;SDS011;3028;49.468;7.694;2023-11-19T03:34:16;0.90;;;0.90;;
5999;SDS011;3028;49.468;7.694;2023-11-19T03:36:18;1.33;;;1.27;;
5999;SDS011;3028;49.468;7.694;2023-11-19T03:38:20;0.70;;;0.70;;
5999;SDS011;3028;49.468;7.694;2023-11-19T03:40:22;0.50;;;0.50;;
5999;SDS011;3028;49.468;7.694;2023-11-19T03:42:24;0.70;;;0.70;;
5999;SDS011;3028;49.468;7.694;2023-11-19T03:44:26;0.50;;;0.50;;
5999;SDS011;3028;49.468;7.694;2023-11-19T03:46:28;1.05;;;1.05;;
5999;SDS011;3028;49.468;7.694;2023-11-19T03:48:31;0.60;;;0.60;;
5999;SDS011;3028;49.468;7.694;2023-11-19T03:50:33;0.75;;;0.75;;
5999;SDS011;3028;49.468;7.694;2023-11-19T03:52:36;0.60;;;0.60;;
5999;SDS011;3028;49.468;7.694;2023-11-19T03:54:41;0.80;;;0.80;;
5999;SDS011;3028;49.468;7.694;2023-11-19T03:56:43;0.82;;;0.82;;
5999;SDS011;3028;49.468;7.694;2023-11-19T03:58:45;0.98;;;0.98;;
5999;SDS011;3028;49.468;7.694;2023-11-19T04:00:46;0.68;;;0.68;;
5999;SDS011;3028;49.468;7.694;2023-11-19T04:02:49;0.80;;;0.80;;
5999;SDS011;3028;49.468;7.694;2023-11-19T04:04:51;0.90;;;0.90;;
5999;SDS011;3028;49.468;7.694;2023-11-19T04:06:53;0.80;;;0.80;;
5999;SDS011;3028;49.468;7.694;2023-11-19T04:08:55;1.13;;;1.13;;
5999;SDS011;3028;49.468;7.694;2023-11-19T04:10:57;0.90;;;0.90;;
5999;SDS011;3028;49.468;7.694;2023-11-19T04:12:58;1.10;;;0.98;;
5999;SDS011;3028;49.468;7.694;2023-11-19T04:15:00;0.95;;;0.95;;
5999;SDS011;3028;49.468;7.694;2023-11-19T04:17:02;9.95;;;1.25;;
5999;SDS011;3028;49.468;7.694;2023-11-19T04:19:05;0.77;;;0.77;;
5999;SDS011;3028;49.468;7.694;2023-11-19T04:21:08;1.13;;;1.13;;
5999;SDS011;3028;49.468;7.694;2023-11-19T04:23:09;0.73;;;0.73;;
5999;SDS011;3028;49.468;7.694;2023-11-19T04:25:12;1.15;;;1.10;;
5999;SDS011;3028;49.468;7.694;2023-11-19T04:27:17;0.90;;;0.90;;
5999;SDS011;3028;49.468;7.694;2023-11-19T04:29:19;1.70;;;1.63;;
5999;SDS011;3028;49.468;7.694;2023-11-19T04:31:21;0.95;;;0.95;;
5999;SDS011;3028;49.468;7.694;2023-11-19T04:33:22;0.82;;;0.82;;
5999;SDS011;3028;49.468;7.694;2023-11-19T04:35:24;1.42;;;1.20;;
5999;SDS011;3028;49.468;7.694;2023-11-19T04:37:27;0.98;;;0.88;;
5999;SDS011;3028;49.468;7.694;2023-11-19T04:39:29;1.10;;;1.10;;
5999;SDS011;3028;49.468;7.694;2023-11-19T04:41:31;1.17;;;1.17;;
5999;SDS011;3028;49.468;7.694;2023-11-19T04:43:32;1.20;;;1.20;;
5999;SDS011;3028;49.468;7.694;2023-11-19T04:45:34;0.88;;;0.88;;
5999;SDS011;3028;49.468;7.694;2023-11-19T04:47:37;1.08;;;1.08;;
5999;SDS011;3028;49.468;7.694;2023-11-19T04:49:40;0.77;;;0.77;;
5999;SDS011;3028;49.468;7.694;2023-11-19T04:51:45;1.10;;;1.00;;
5999;SDS011;3028;49.468;7.694;2023-11-19T04:53:50;1.55;;;1.20;;
5999;SDS011;3028;49.468;7.694;2023-11-19T04:55:52;0.90;;;0.90;;
5999;SDS011;3028;49.468;7.694;2023-11-19T04:57:54;0.80;;;0.80;;
5999;SDS011;3028;49.468;7.694;2023-11-19T04:59:56;7.57;;;0.93;;
5999;SDS011;3028;49.468;7.694;2023-11-19T05:01:58;0.73;;;0.73;;
5999;SDS011;3028;49.468;7.694;2023-11-19T05:03:59;0.82;;;0.82;;
5999;SDS011;3028;49.468;7.694;2023-11-19T05:06:02;0.65;;;0.65;;
5999;SDS011;3028;49.468;7.694;2023-11-19T05:08:04;1.88;;;1.35;;
5999;SDS011;3028;49.468;7.694;2023-11-19T05:10:06;0.70;;;0.70;;
5999;SDS011;3028;49.468;7.694;2023-11-19T05:12:08;0.73;;;0.70;;
5999;SDS011;3028;49.468;7.694;2023-11-19T05:14:13;1.23;;;1.13;;
5999;SDS011;3028;49.468;7.694;2023-11-19T05:16:15;1.10;;;1.10;;
5999;SDS011;3028;49.468;7.694;2023-11-19T05:18:17;0.80;;;0.80;;
5999;SDS011;3028;49.468;7.694;2023-11-19T05:20:19;1.05;;;1.05;;
5999;SDS011;3028;49.468;7.694;2023-11-19T05:22:21;0.90;;;0.90;;
5999;SDS011;3028;49.468;7.694;2023-11-19T05:24:23;1.15;;;1.15;;
5999;SDS011;3028;49.468;7.694;2023-11-19T05:26:25;0.82;;;0.82;;
5999;SDS011;3028;49.468;7.694;2023-11-19T05:28:27;1.10;;;1.00;;
5999;SDS011;3028;49.468;7.694;2023-11-19T05:30:29;1.40;;;1.30;;
5999;SDS011;3028;49.468;7.694;2023-11-19T05:32:31;0.80;;;0.80;;
5999;SDS011;3028;49.468;7.694;2023-11-19T05:34:32;1.48;;;1.42;;
5999;SDS011;3028;49.468;7.694;2023-11-19T05:36:34;1.42;;;0.98;;
5999;SDS011;3028;49.468;7.694;2023-11-19T05:38:39;1.15;;;1.13;;
5999;SDS011;3028;49.468;7.694;2023-11-19T05:40:41;1.60;;;1.08;;
5999;SDS011;3028;49.468;7.694;2023-11-19T05:42:43;5.38;;;1.92;;
5999;SDS011;3028;49.468;7.694;2023-11-19T05:44:45;1.17;;;1.17;;
5999;SDS011;3028;49.468;7.694;2023-11-19T05:46:47;1.10;;;1.10;;
5999;SDS011;3028;49.468;7.694;2023-11-19T05:48:49;1.33;;;1.00;;
5999;SDS011;3028;49.468;7.694;2023-11-19T05:50:51;0.90;;;0.90;;
5999;SDS011;3028;49.468;7.694;2023-11-19T05:52:52;0.70;;;0.70;;
5999;SDS011;3028;49.468;7.694;2023-11-19T05:54:55;1.15;;;1.00;;
5999;SDS011;3028;49.468;7.694;2023-11-19T05:56:56;0.90;;;0.90;;
5999;SDS011;3028;49.468;7.694;2023-11-19T05:58:59;0.80;;;0.80;;
5999;SDS011;3028;49.468;7.694;2023-11-19T06:01:08;0.80;;;0.80;;
5999;SDS011;3028;49.468;7.694;2023-11-19T06:03:10;1.83;;;1.10;;
5999;SDS011;3028;49.468;7.694;2023-11-19T06:05:12;0.70;;;0.70;;
5999;SDS011;3028;49.468;7.694;2023-11-19T06:07:14;0.80;;;0.80;;
5999;SDS011;3028;49.468;7.694;2023-11-19T06:09:16;0.80;;;0.80;;
5999;SDS011;3028;49.468;7.694;2023-11-19T06:11:19;1.38;;;1.27;;
5999;SDS011;3028;49.468;7.694;2023-11-19T06:13:22;0.90;;;0.90;;
5999;SDS011;3028;49.468;7.694;2023-11-19T06:15:26;0.75;;;0.70;;
5999;SDS011;3028;49.468;7.694;2023-11-19T06:17:28;1.58;;;0.90;;
5999;SDS011;3028;49.468;7.694;2023-11-19T06:19:30;0.70;;;0.70;;
5999;SDS011;3028;49.468;7.694;2023-11-19T06:21:32;0.70;;;0.70;;
5999;SDS011;3028;49.468;7.694;2023-11-19T06:23:34;0.80;;;0.80;;
5999;SDS011;3028;49.468;7.694;2023-11-19T06:25:38;0.82;;;0.82;;
5999;SDS011;3028;49.468;7.694;2023-11-19T06:27:41;0.70;;;0.70;;
5999;SDS011;3028;49.468;7.694;2023-11-19T06:29:43;4.57;;;1.10;;
5999;SDS011;3028;49.468;7.694;2023-11-19T06:31:45;1.45;;;1.13;;
5999;SDS011;3028;49.468;7.694;2023-11-19T06:33:53;0.90;;;0.90;;
5999;SDS011;3028;49.468;7.694;2023-11-19T06:35:54;0.80;;;0.80;;
5999;SDS011;3028;49.468;7.694;2023-11-19T06:37:56;1.60;;;1.00;;
5999;SDS011;3028;49.468;7.694;2023-11-19T06:39:58;0.70;;;0.70;;
5999;SDS011;3028;49.468;7.694;2023-11-19T06:42:00;0.75;;;0.75;;
5999;SDS011;3028;49.468;7.694;2023-11-19T06:44:02;1.23;;;0.90;;
5999;SDS011;3028;49.468;7.694;2023-11-19T06:46:04;0.70;;;0.70;;
5999;SDS011;3028;49.468;7.694;2023-11-19T06:48:07;0.70;;;0.70;;
5999;SDS011;3028;49.468;7.694;2023-11-19T06:50:09;1.00;;;1.00;;
5999;SDS011;3028;49.468;7.694;2023-11-19T06:52:11;6.97;;;0.90;;
5999;SDS011;3028;49.468;7.694;2023-11-19T06:54:12;0.60;;;0.60;;
5999;SDS011;3028;49.468;7.694;2023-11-19T06:56:18;2.60;;;0.60;;
5999;SDS011;3028;49.468;7.694;2023-11-19T06:58:22;1.65;;;0.93;;
5999;SDS011;3028;49.468;7.694;2023-11-19T07:00:24;1.00;;;1.00;;
5999;SDS011;3028;49.468;7.694;2023-11-19T07:02:26;14.80;;;0.88;;
5999;SDS011;3028;49.468;7.694;2023-11-19T07:04:28;0.50;;;0.50;;
5999;SDS011;3028;49.468;7.694;2023-11-19T07:06:30;0.80;;;0.80;;
5999;SDS011;3028;49.468;7.694;2023-11-19T07:08:34;1.95;;;0.90;;
5999;SDS011;3028;49.468;7.694;2023-11-19T07:10:37;0.63;;;0.63;;
5999;SDS011;3028;49.468;7.694;2023-11-19T07:12:39;2.13;;;1.27;;
5999;SDS011;3028;49.468;7.694;2023-11-19T07:14:41;0.73;;;0.73;;
5999;SDS011;3028;49.468;7.694;2023-11-19T07:16:43;0.70;;;0.70;;
5999;SDS011;3028;49.468;7.694;2023-11-19T07:18:45;0.50;;;0.50;;
5999;SDS011;3028;49.468;7.694;2023-11-19T07:20:47;0.90;;;0.90;;
5999;SDS011;3028;49.468;7.694;2023-11-19T07:22:49;0.60;;;0.60;;
5999;SDS011;3028;49.468;7.694;2023-11-19T07:24:54;0.70;;;0.70;;
5999;SDS011;3028;49.468;7.694;2023-11-19T07:26:56;0.50;;;0.50;;
5999;SDS011;3028;49.468;7.694;2023-11-19T07:28:58;0.40;;;0.40;;
5999;SDS011;3028;49.468;7.694;2023-11-19T07:30:59;0.60;;;0.60;;
5999;SDS011;3028;49.468;7.694;2023-11-19T07:33:01;0.70;;;0.70;;
5999;SDS011;3028;49.468;7.694;2023-11-19T07:35:05;0.70;;;0.70;;
5999;SDS011;3028;49.468;7.694;2023-11-19T07:37:07;0.60;;;0.60;;
5999;SDS011;3028;49.468;7.694;2023-11-19T07:39:09;0.40;;;0.40;;
5999;SDS011;3028;49.468;7.694;2023-11-19T07:41:12;0.60;;;0.60;;
5999;SDS011;3028;49.468;7.694;2023-11-19T07:43:14;0.68;;;0.68;;
5999;SDS011;3028;49.468;7.694;2023-11-19T07:45:17;0.60;;;0.60;;
5999;SDS011;3028;49.468;7.694;2023-11-19T07:47:18;2.08;;;1.20;;
5999;SDS011;3028;49.468;7.694;2023-11-19T07:49:20;9.27;;;0.98;;
5999;SDS011;3028;49.468;7.694;2023-11-19T07:51:22;2.03;;;0.60;;
5999;SDS011;3028;49.468;7.694;2023-11-19T07:53:24;0.90;;;0.90;;
5999;SDS011;3028;49.468;7.694;2023-11-19T07:55:26;0.63;;;0.63;;
5999;SDS011;3028;49.468;7.694;2023-11-19T07:57:28;0.73;;;0.73;;
5999;SDS011;3028;49.468;7.694;2023-11-19T07:59:32;0.73;;;0.65;;
5999;SDS011;3028;49.468;7.694;2023-11-19T08:01:34;0.73;;;0.73;;
5999;SDS011;3028;49.468;7.694;2023-11-19T08:03:36;0.70;;;0.70;;
5999;SDS011;3028;49.468;7.694;2023-11-19T08:05:38;1.10;;;0.70;;
5999;SDS011;3028;49.468;7.694;2023-11-19T08:07:41;0.90;;;0.70;;
5999;SDS011;3028;49.468;7.694;2023-11-19T08:09:43;0.60;;;0.60;;
5999;SDS011;3028;49.468;7.694;2023-11-19T08:11:45;4.10;;;0.65;;
5999;SDS011;3028;49.468;7.694;2023-11-19T08:13:47;1.05;;;0.80;;
5999;SDS011;3028;49.468;7.694;2023-11-19T08:15:49;0.60;;;0.60;;
5999;SDS011;3028;49.468;7.694;2023-11-19T08:17:50;0.80;;;0.80;;
5999;SDS011;3028;49.468;7.694;2023-11-19T08:19:52;3.20;;;1.35;;
5999;SDS011;3028;49.468;7.694;2023-11-19T08:21:54;1.85;;;0.90;;
5999;SDS011;3028;49.468;7.694;2023-11-19T08:23:56;2.15;;;0.80;;
5999;SDS011;3028;49.468;7.694;2023-11-19T08:25:57;1.25;;;1.15;;
5999;SDS011;3028;49.468;7.694;2023-11-19T08:27:59;0.82;;;0.82;;
5999;SDS011;3028;49.468;7.694;2023-11-19T08:30:02;3.60;;;1.17;;
5999;SDS011;3028;49.468;7.694;2023-11-19T08:32:04;4.10;;;1.10;;
5999;SDS011;3028;49.468;7.694;2023-11-19T08:34:07;0.65;;;0.65;;
5999;SDS011;3028;49.468;7.694;2023-11-19T08:36:15;0.63;;;0.63;;
5999;SDS011;3028;49.468;7.694;2023-11-19T08:38:17;0.98;;;0.98;;
5999;SDS011;3028;49.468;7.694;2023-11-19T08:40:32;1.27;;;1.20;;
5999;SDS011;3028;49.468;7.694;2023-11-19T08:42:34;4.78;;;0.85;;
5999;SDS011;3028;49.468;7.694;2023-11-19T08:44:35;0.70;;;0.63;;
5999;SDS011;3028;49.468;7.694;2023-11-19T08:46:37;1.15;;;0.80;;
5999;SDS011;3028;49.468;7.694;2023-11-19T08:48:39;0.95;;;0.90;;
5999;SDS011;3028;49.468;7.694;2023-11-19T08:50:41;0.60;;;0.60;;
5999;SDS011;3028;49.468;7.694;2023-11-19T08:52:43;1.58;;;1.48;;
5999;SDS011;3028;49.468;7.694;2023-11-19T08:54:44;0.85;;;0.60;;
5999;SDS011;3028;49.468;7.694;2023-11-19T08:56:46;0.45;;;0.35;;
5999;SDS011;3028;49.468;7.694;2023-11-19T08:58:48;0.68;;;0.68;;
5999;SDS011;3028;49.468;7.694;2023-11-19T09:00:50;0.88;;;0.80;;
5999;SDS011;3028;49.468;7.694;2023-11-19T09:02:52;2.33;;;1.35;;
5999;SDS011;3028;49.468;7.694;2023-11-19T09:04:56;2.92;;;0.63;;
5999;SDS011;3028;49.468;7.694;2023-11-19T09:07:01;0.60;;;0.60;;
5999;SDS011;3028;49.468;7.694;2023-11-19T09:09:02;0.60;;;0.60;;
5999;SDS011;3028;49.468;7.694;2023-11-19T09:11:07;1.10;;;1.00;;
5999;SDS011;3028;49.468;7.694;2023-11-19T09:13:10;0.70;;;0.70;;
5999;SDS011;3028;49.468;7.694;2023-11-19T09:15:11;0.75;;;0.70;;
5999;SDS011;3028;49.468;7.694;2023-11-19T09:17:14;1.38;;;1.38;;
5999;SDS011;3028;49.468;7.694;2023-11-19T09:19:17;0.65;;;0.65;;
5999;SDS011;3028;49.468;7.694;2023-11-19T09:21:19;1.50;;;1.08;;
5999;SDS011;3028;49.468;7.694;2023-11-19T09:23:21;0.55;;;0.55;;
5999;SDS011;3028;49.468;7.694;2023-11-19T09:25:23;0.55;;;0.55;;
5999;SDS011;3028;49.468;7.694;2023-11-19T09:27:25;1.17;;;0.88;;
5999;SDS011;3028;49.468;7.694;2023-11-19T09:29:27;1.08;;;0.60;;
5999;SDS011;3028;49.468;7.694;2023-11-19T09:31:28;1.60;;;0.55;;
5999;SDS011;3028;49.468;7.694;2023-11-19T09:33:30;0.88;;;0.63;;
5999;SDS011;3028;49.468;7.694;2023-11-19T09:35:32;0.57;;;0.57;;
5999;SDS011;3028;49.468;7.694;2023-11-19T09:37:34;1.17;;;0.70;;
5999;SDS011;3028;49.468;7.694;2023-11-19T09:39:36;0.60;;;0.60;;
5999;SDS011;3028;49.468;7.694;2023-11-19T09:41:37;0.60;;;0.60;;
5999;SDS011;3028;49.468;7.694;2023-11-19T09:43:39;0.85;;;0.70;;
5999;SDS011;3028;49.468;7.694;2023-11-19T09:45:47;0.60;;;0.60;;
5999;SDS011;3028;49.468;7.694;2023-11-19T09:47:53;1.35;;;0.50;;
5999;SDS011;3028;49.468;7.694;2023-11-19T09:49:58;3.47;;;0.80;;
5999;SDS011;3028;49.468;7.694;2023-11-19T09:52:00;0.60;;;0.60;;
5999;SDS011;3028;49.468;7.694;2023-11-19T09:54:02;0.40;;;0.40;;
5999;SDS011;3028;49.468;7.694;2023-11-19T09:56:04;0.25;;;0.25;;
5999;SDS011;3028;49.468;7.694;2023-11-19T09:58:06;1.13;;;0.60;;
5999;SDS011;3028;49.468;7.694;2023-11-19T10:00:10;0.30;;;0.30;;
5999;SDS011;3028;49.468;7.694;2023-11-19T10:02:13;0.43;;;0.43;;
5999;SDS011;3028;49.468;7.694;2023-11-19T10:04:16;0.85;;;0.60;;
5999;SDS011;3028;49.468;7.694;2023-11-19T10:06:18;1.05;;;0.63;;
5999;SDS011;3028;49.468;7.694;2023-11-19T10:08:20;0.80;;;0.68;;
5999;SDS011;3028;49.468;7.694;2023-11-19T10:10:22;0.40;;;0.40;;
5999;SDS011;3028;49.468;7.694;2023-11-19T10:12:24;0.80;;;0.70;;
5999;SDS011;3028;49.468;7.694;2023-11-19T10:14:26;1.40;;;0.93;;
5999;SDS011;3028;49.468;7.694;2023-11-19T10:16:29;0.43;;;0.43;;
5999;SDS011;3028;49.468;7.694;2023-11-19T10:18:32;0.65;;;0.65;;
5999;SDS011;3028;49.468;7.694;2023-11-19T10:20:41;1.25;;;0.60;;
5999;SDS011;3028;49.468;7.694;2023-11-19T10:22:43;3.50;;;1.88;;
5999;SDS011;3028;49.468;7.694;2023-11-19T10:24:45;0.82;;;0.60;;
5999;SDS011;3028;49.468;7.694;2023-11-19T10:26:52;3.10;;;0.35;;
5999;SDS011;3028;49.468;7.694;2023-11-19T10:28:54;0.40;;;0.40;;
5999;SDS011;3028;49.468;7.694;2023-11-19T10:30:56;1.15;;;1.15;;
5999;SDS011;3028;49.468;7.694;2023-11-19T10:35:09;0.35;;;0.35;;
5999;SDS011;3028;49.468;7.694;2023-11-19T10:37:29;0.70;;;0.70;;
5999;SDS011;3028;49.468;7.694;2023-11-19T10:39:53;1.65;;;1.60;;
5999;SDS011;3028;49.468;7.694;2023-11-19T10:41:56;0.40;;;0.40;;
5999;SDS011;3028;49.468;7.694;2023-11-19T10:43:59;0.40;;;0.40;;
5999;SDS011;3028;49.468;7.694;2023-11-19T10:46:11;1.48;;;1.02;;
5999;SDS011;3028;49.468;7.694;2023-11-19T10:48:13;0.57;;;0.57;;
5999;SDS011;3028;49.468;7.694;2023-11-19T10:50:15;0.85;;;0.70;;
5999;SDS011;3028;49.468;7.694;2023-11-19T10:52:20;0.65;;;0.60;;
5999;SDS011;3028;49.468;7.694;2023-11-19T10:54:23;0.60;;;0.60;;
5999;SDS011;3028;49.468;7.694;2023-11-19T10:56:26;0.65;;;0.65;;
5999;SDS011;3028;49.468;7.694;2023-11-19T10:58:29;0.57;;;0.57;;
5999;SDS011;3028;49.468;7.694;2023-11-19T11:00:54;0.50;;;0.50;;
5999;SDS011;3028;49.468;7.694;2023-11-19T11:03:02;0.65;;;0.43;;
5999;SDS011;3028;49.468;7.694;2023-11-19T11:05:13;2.75;;;1.27;;
5999;SDS011;3028;49.468;7.694;2023-11-19T11:07:16;5.43;;;0.77;;
5999;SDS011;3028;49.468;7.694;2023-11-19T11:09:27;0.60;;;0.60;;
5999;SDS011;3028;49.468;7.694;2023-11-19T11:11:29;0.52;;;0.52;;
5999;SDS011;3028;49.468;7.694;2023-11-19T11:13:31;0.80;;;0.65;;
5999;SDS011;3028;49.468;7.694;2023-11-19T11:15:33;0.47;;;0.47;;
5999;SDS011;3028;49.468;7.694;2023-11-19T11:17:35;0.40;;;0.40;;
5999;SDS011;3028;49.468;7.694;2023-11-19T11:19:38;0.90;;;0.28;;
5999;SDS011;3028;49.468;7.694;2023-11-19T11:21:41;0.40;;;0.40;;
5999;SDS011;3028;49.468;7.694;2023-11-19T11:33:06;1.10;;;1.08;;
5999;SDS011;3028;49.468;7.694;2023-11-19T11:35:21;0.85;;;0.73;;
5999;SDS011;3028;49.468;7.694;2023-11-19T11:37:33;0.60;;;0.60;;
5999;SDS011;3028;49.468;7.694;2023-11-19T11:39:39;0.50;;;0.50;;
5999;SDS011;3028;49.468;7.694;2023-11-19T11:41:42;1.58;;;0.52;;
5999;SDS011;3028;49.468;7.694;2023-11-19T11:43:48;0.30;;;0.30;;
5999;SDS011;3028;49.468;7.694;2023-11-19T11:45:51;0.77;;;0.75;;
5999;SDS011;3028;49.468;7.694;2023-11-19T11:49:55;1.20;;;1.10;;
5999;SDS011;3028;49.468;7.694;2023-11-19T11:52:00;9.70;;;0.82;;
5999;SDS011;3028;49.468;7.694;2023-11-19T11:54:02;2.08;;;0.75;;
5999;SDS011;3028;49.468;7.694;2023-11-19T11:56:04;0.40;;;0.40;;
5999;SDS011;3028;49.468;7.694;2023-11-19T11:58:09;1.85;;;0.63;;
5999;SDS011;3028;49.468;7.694;2023-11-19T12:00:11;0.45;;;0.45;;
5999;SDS011;3028;49.468;7.694;2023-11-19T12:02:28;0.88;;;0.88;;
5999;SDS011;3028;49.468;7.694;2023-11-19T12:04:31;0.80;;;0.80;;
5999;SDS011;3028;49.468;7.694;2023-11-19T12:06:33;1.73;;;0.70;;
5999;SDS011;3028;49.468;7.694;2023-11-19T12:08:35;0.50;;;0.50;;
5999;SDS011;3028;49.468;7.694;2023-11-19T12:10:54;2.28;;;0.70;;
5999;SDS011;3028;49.468;7.694;2023-11-19T12:13:00;1.95;;;0.73;;
5999;SDS011;3028;49.468;7.694;2023-11-19T12:19:42;0.70;;;0.70;;
5999;SDS011;3028;49.468;7.694;2023-11-19T12:21:46;1.30;;;0.60;;
5999;SDS011;3028;49.468;7.694;2023-11-19T12:23:47;8.43;;;0.70;;
5999;SDS011;3028;49.468;7.694;2023-11-19T12:25:49;2.72;;;0.98;;
5999;SDS011;3028;49.468;7.694;2023-11-19T12:27:53;2.22;;;0.60;;
5999;SDS011;3028;49.468;7.694;2023-11-19T12:29:56;0.93;;;0.70;;
5999;SDS011;3028;49.468;7.694;2023-11-19T12:31:58;2.95;;;0.70;;
5999;SDS011;3028;49.468;7.694;2023-11-19T12:34:07;0.82;;;0.63;;
5999;SDS011;3028;49.468;7.694;2023-11-19T12:36:14;1.10;;;0.50;;
5999;SDS011;3028;49.468;7.694;2023-11-19T12:38:25;0.50;;;0.50;;
5999;SDS011;3028;49.468;7.694;2023-11-19T12:40:27;0.40;;;0.40;;
5999;SDS011;3028;49.468;7.694;2023-11-19T12:42:36;1.63;;;0.63;;
5999;SDS011;3028;49.468;7.694;2023-11-19T12:44:38;3.53;;;0.88;;
5999;SDS011;3028;49.468;7.694;2023-11-19T12:46:40;0.88;;;0.50;;
5999;SDS011;3028;49.468;7.694;2023-11-19T12:48:42;6.45;;;1.77;;
5999;SDS011;3028;49.468;7.694;2023-11-19T12:50:53;3.92;;;1.35;;
5999;SDS011;3028;49.468;7.694;2023-11-19T12:52:56;0.40;;;0.40;;
5999;SDS011;3028;49.468;7.694;2023-11-19T12:54:58;2.30;;;0.80;;
5999;SDS011;3028;49.468;7.694;2023-11-19T12:57:01;0.70;;;0.60;;
5999;SDS011;3028;49.468;7.694;2023-11-19T12:59:10;0.45;;;0.45;;
5999;SDS011;3028;49.468;7.694;2023-11-19T13:01:19;0.68;;;0.65;;
5999;SDS011;3028;49.468;7.694;2023-11-19T13:03:35;0.43;;;0.43;;
5999;SDS011;3028;49.468;7.694;2023-11-19T13:05:38;0.43;;;0.40;;